sensor_id;sensor_type;location;lat;lon;timestamp;temperature;humidity
64685;DHT22;51109;47.414;18.954;2022-07-29T00:00:08;23.80;97.90
64685;DHT22;51109;47.414;18.954;2022-07-29T00:02:35;23.80;97.80
64685;DHT22;51109;47.414;18.954;2022-07-29T00:05:02;23.80;98.00
64685;DHT22;51109;47.414;18.954;2022-07-29T00:07:28;23.80;97.90
64685;DHT22;51109;47.414;18.954;2022-07-29T00:09:54;23.70;98.00
64685;DHT22;51109;47.414;18.954;2022-07-29T00:12:21;23.80;98.00
64685;DHT22;51109;47.414;18.954;2022-07-29T00:14:48;23.70;98.10
64685;DHT22;51109;47.414;18.954;2022-07-29T00:17:13;23.90;98.00
64685;DHT22;51109;47.414;18.954;2022-07-29T00:19:40;24.00;97.80
64685;DHT22;51109;47.414;18.954;2022-07-29T00:22:06;24.10;97.80
64685;DHT22;51109;47.414;18.954;2022-07-29T00:24:32;24.00;97.90
64685;DHT22;51109;47.414;18.954;2022-07-29T00:26:58;23.90;98.10
64685;DHT22;51109;47.414;18.954;2022-07-29T00:29:23;23.80;98.70
64685;DHT22;51109;47.414;18.954;2022-07-29T00:31:49;23.80;98.40
64685;DHT22;51109;47.414;18.954;2022-07-29T00:34:16;23.90;98.40
64685;DHT22;51109;47.414;18.954;2022-07-29T00:37:00;23.80;98.60
64685;DHT22;51109;47.414;18.954;2022-07-29T00:39:26;23.70;98.80
64685;DHT22;51109;47.414;18.954;2022-07-29T00:41:52;23.80;98.70
64685;DHT22;51109;47.414;18.954;2022-07-29T00:44:17;23.90;98.60
64685;DHT22;51109;47.414;18.954;2022-07-29T00:46:43;23.90;98.60
64685;DHT22;51109;47.414;18.954;2022-07-29T00:49:09;23.90;98.80
64685;DHT22;51109;47.414;18.954;2022-07-29T00:51:37;23.80;98.90
64685;DHT22;51109;47.414;18.954;2022-07-29T00:54:04;23.70;99.10
64685;DHT22;51109;47.414;18.954;2022-07-29T00:56:31;23.60;99.40
64685;DHT22;51109;47.414;18.954;2022-07-29T00:58:58;23.50;99.40
64685;DHT22;51109;47.414;18.954;2022-07-29T01:01:24;23.40;99.90
64685;DHT22;51109;47.414;18.954;2022-07-29T01:03:50;23.50;99.60
64685;DHT22;51109;47.414;18.954;2022-07-29T01:06:17;23.60;99.60
64685;DHT22;51109;47.414;18.954;2022-07-29T01:08:47;23.60;99.50
64685;DHT22;51109;47.414;18.954;2022-07-29T01:11:15;23.60;99.50
64685;DHT22;51109;47.414;18.954;2022-07-29T01:13:43;23.50;99.90
64685;DHT22;51109;47.414;18.954;2022-07-29T01:16:32;23.40;99.90
64685;DHT22;51109;47.414;18.954;2022-07-29T01:19:07;23.40;99.90
64685;DHT22;51109;47.414;18.954;2022-07-29T01:27:38;23.40;99.90
64685;DHT22;51109;47.414;18.954;2022-07-29T01:30:07;23.30;99.90
64685;DHT22;51109;47.414;18.954;2022-07-29T01:32:35;23.40;99.90
64685;DHT22;51109;47.414;18.954;2022-07-29T01:35:14;23.40;99.90
64685;DHT22;51109;47.414;18.954;2022-07-29T01:37:48;23.30;99.90
64685;DHT22;51109;47.414;18.954;2022-07-29T01:40:22;23.30;99.90
64685;DHT22;51109;47.414;18.954;2022-07-29T01:42:52;23.20;99.90
64685;DHT22;51109;47.414;18.954;2022-07-29T01:45:28;23.30;99.90
64685;DHT22;51109;47.414;18.954;2022-07-29T01:48:03;23.20;99.90
64685;DHT22;51109;47.414;18.954;2022-07-29T01:50:43;23.20;99.90
64685;DHT22;51109;47.414;18.954;2022-07-29T01:53:14;23.30;99.90
64685;DHT22;51109;47.414;18.954;2022-07-29T01:55:44;23.30;99.90
64685;DHT22;51109;47.414;18.954;2022-07-29T01:58:12;23.20;99.90
64685;DHT22;51109;47.414;18.954;2022-07-29T02:00:40;23.20;99.90
64685;DHT22;51109;47.414;18.954;2022-07-29T02:03:10;23.20;99.90
64685;DHT22;51109;47.414;18.954;2022-07-29T02:05:38;23.30;99.90
64685;DHT22;51109;47.414;18.954;2022-07-29T02:08:06;23.20;99.90
64685;DHT22;51109;47.414;18.954;2022-07-29T02:10:34;23.30;99.90
64685;DHT22;51109;47.414;18.954;2022-07-29T02:13:03;23.30;99.90
64685;DHT22;51109;47.414;18.954;2022-07-29T02:15:32;23.30;99.90
64685;DHT22;51109;47.414;18.954;2022-07-29T02:18:07;23.20;99.90
64685;DHT22;51109;47.414;18.954;2022-07-29T02:20:34;23.00;99.90
64685;DHT22;51109;47.414;18.954;2022-07-29T02:23:02;22.90;99.90
64685;DHT22;51109;47.414;18.954;2022-07-29T02:25:28;22.80;99.90
64685;DHT22;51109;47.414;18.954;2022-07-29T02:27:55;22.80;99.90
64685;DHT22;51109;47.414;18.954;2022-07-29T02:30:23;22.80;99.90
64685;DHT22;51109;47.414;18.954;2022-07-29T02:32:50;23.00;99.90
64685;DHT22;51109;47.414;18.954;2022-07-29T02:35:18;23.10;99.90
64685;DHT22;51109;47.414;18.954;2022-07-29T02:37:45;23.00;99.90
64685;DHT22;51109;47.414;18.954;2022-07-29T02:40:34;22.90;99.90
64685;DHT22;51109;47.414;18.954;2022-07-29T02:43:03;22.90;99.90
64685;DHT22;51109;47.414;18.954;2022-07-29T02:45:32;22.90;99.90
64685;DHT22;51109;47.414;18.954;2022-07-29T02:47:59;22.90;99.90
64685;DHT22;51109;47.414;18.954;2022-07-29T02:50:38;22.90;99.90
64685;DHT22;51109;47.414;18.954;2022-07-29T02:53:14;22.80;99.90
64685;DHT22;51109;47.414;18.954;2022-07-29T02:55:59;22.70;99.90
64685;DHT22;51109;47.414;18.954;2022-07-29T02:58:31;22.80;99.90
64685;DHT22;51109;47.414;18.954;2022-07-29T03:01:01;22.80;99.90
64685;DHT22;51109;47.414;18.954;2022-07-29T03:03:31;22.70;99.90
64685;DHT22;51109;47.414;18.954;2022-07-29T03:06:00;22.70;99.90
64685;DHT22;51109;47.414;18.954;2022-07-29T03:08:27;22.70;99.90
64685;DHT22;51109;47.414;18.954;2022-07-29T03:10:53;22.50;99.90
64685;DHT22;51109;47.414;18.954;2022-07-29T03:13:19;22.40;99.90
64685;DHT22;51109;47.414;18.954;2022-07-29T03:15:46;22.30;99.90
64685;DHT22;51109;47.414;18.954;2022-07-29T03:18:13;22.40;99.90
64685;DHT22;51109;47.414;18.954;2022-07-29T03:20:39;22.50;99.90
64685;DHT22;51109;47.414;18.954;2022-07-29T03:23:07;22.60;99.90
64685;DHT22;51109;47.414;18.954;2022-07-29T03:25:33;22.60;99.90
64685;DHT22;51109;47.414;18.954;2022-07-29T03:28:00;22.60;99.90
64685;DHT22;51109;47.414;18.954;2022-07-29T03:30:26;22.60;99.90
64685;DHT22;51109;47.414;18.954;2022-07-29T03:32:52;22.60;99.90
64685;DHT22;51109;47.414;18.954;2022-07-29T03:35:19;22.70;99.90
64685;DHT22;51109;47.414;18.954;2022-07-29T03:37:45;22.80;99.90
64685;DHT22;51109;47.414;18.954;2022-07-29T03:40:17;22.70;99.90
64685;DHT22;51109;47.414;18.954;2022-07-29T03:42:44;22.70;99.90
64685;DHT22;51109;47.414;18.954;2022-07-29T03:45:15;22.50;99.90
64685;DHT22;51109;47.414;18.954;2022-07-29T03:47:47;22.60;99.90
64685;DHT22;51109;47.414;18.954;2022-07-29T03:50:14;22.50;99.90
64685;DHT22;51109;47.414;18.954;2022-07-29T03:52:41;22.60;99.90
64685;DHT22;51109;47.414;18.954;2022-07-29T03:55:08;22.60;99.90
64685;DHT22;51109;47.414;18.954;2022-07-29T03:57:35;22.60;99.90
64685;DHT22;51109;47.414;18.954;2022-07-29T04:00:03;22.60;99.90
64685;DHT22;51109;47.414;18.954;2022-07-29T04:02:32;22.60;99.90
64685;DHT22;51109;47.414;18.954;2022-07-29T04:04:58;22.60;99.90
64685;DHT22;51109;47.414;18.954;2022-07-29T04:07:24;22.60;99.90
64685;DHT22;51109;47.414;18.954;2022-07-29T04:09:50;22.50;99.90
64685;DHT22;51109;47.414;18.954;2022-07-29T04:12:16;22.50;99.90
64685;DHT22;51109;47.414;18.954;2022-07-29T04:14:42;22.50;99.90
64685;DHT22;51109;47.414;18.954;2022-07-29T04:17:08;22.60;99.90
64685;DHT22;51109;47.414;18.954;2022-07-29T04:19:33;22.70;99.90
64685;DHT22;51109;47.414;18.954;2022-07-29T04:22:00;22.60;99.90
64685;DHT22;51109;47.414;18.954;2022-07-29T04:24:27;22.60;99.90
64685;DHT22;51109;47.414;18.954;2022-07-29T04:26:53;22.50;99.90
64685;DHT22;51109;47.414;18.954;2022-07-29T04:29:19;22.60;99.90
64685;DHT22;51109;47.414;18.954;2022-07-29T04:31:45;22.70;99.90
64685;DHT22;51109;47.414;18.954;2022-07-29T04:34:11;22.70;99.90
64685;DHT22;51109;47.414;18.954;2022-07-29T04:36:37;22.70;99.90
64685;DHT22;51109;47.414;18.954;2022-07-29T04:39:04;22.80;99.90
64685;DHT22;51109;47.414;18.954;2022-07-29T04:41:30;22.80;99.90
64685;DHT22;51109;47.414;18.954;2022-07-29T04:43:56;22.90;99.90
64685;DHT22;51109;47.414;18.954;2022-07-29T04:46:22;23.00;99.90
64685;DHT22;51109;47.414;18.954;2022-07-29T04:48:48;23.00;99.90
64685;DHT22;51109;47.414;18.954;2022-07-29T04:51:15;22.90;99.90
64685;DHT22;51109;47.414;18.954;2022-07-29T04:53:41;23.00;99.90
64685;DHT22;51109;47.414;18.954;2022-07-29T04:56:07;23.20;99.90
64685;DHT22;51109;47.414;18.954;2022-07-29T04:58:36;23.30;99.90
64685;DHT22;51109;47.414;18.954;2022-07-29T05:01:03;23.40;99.90
64685;DHT22;51109;47.414;18.954;2022-07-29T05:03:29;23.50;99.90
64685;DHT22;51109;47.414;18.954;2022-07-29T05:05:55;23.50;99.90
64685;DHT22;51109;47.414;18.954;2022-07-29T05:08:20;23.70;99.90
64685;DHT22;51109;47.414;18.954;2022-07-29T05:10:46;23.80;99.90
64685;DHT22;51109;47.414;18.954;2022-07-29T05:13:12;23.90;99.90
64685;DHT22;51109;47.414;18.954;2022-07-29T05:15:38;24.00;99.90
64685;DHT22;51109;47.414;18.954;2022-07-29T05:18:05;24.00;99.90
64685;DHT22;51109;47.414;18.954;2022-07-29T05:20:31;23.90;99.90
64685;DHT22;51109;47.414;18.954;2022-07-29T05:22:59;24.00;99.90
64685;DHT22;51109;47.414;18.954;2022-07-29T05:25:26;24.20;99.90
64685;DHT22;51109;47.414;18.954;2022-07-29T05:27:52;24.30;99.90
64685;DHT22;51109;47.414;18.954;2022-07-29T05:30:19;24.40;99.90
64685;DHT22;51109;47.414;18.954;2022-07-29T05:32:45;24.40;99.90
64685;DHT22;51109;47.414;18.954;2022-07-29T05:35:11;24.50;99.90
64685;DHT22;51109;47.414;18.954;2022-07-29T05:37:37;24.70;99.90
64685;DHT22;51109;47.414;18.954;2022-07-29T05:40:04;24.80;99.90
64685;DHT22;51109;47.414;18.954;2022-07-29T05:42:30;24.80;99.90
64685;DHT22;51109;47.414;18.954;2022-07-29T05:44:56;24.80;99.90
64685;DHT22;51109;47.414;18.954;2022-07-29T05:47:23;24.70;99.90
64685;DHT22;51109;47.414;18.954;2022-07-29T05:49:49;24.70;99.90
64685;DHT22;51109;47.414;18.954;2022-07-29T05:52:15;24.80;99.90
64685;DHT22;51109;47.414;18.954;2022-07-29T05:54:41;24.90;99.90
64685;DHT22;51109;47.414;18.954;2022-07-29T05:57:07;25.00;99.90
64685;DHT22;51109;47.414;18.954;2022-07-29T05:59:37;25.10;99.90
64685;DHT22;51109;47.414;18.954;2022-07-29T06:02:03;25.30;99.90
64685;DHT22;51109;47.414;18.954;2022-07-29T06:04:31;25.30;99.90
64685;DHT22;51109;47.414;18.954;2022-07-29T06:06:57;25.50;99.90
64685;DHT22;51109;47.414;18.954;2022-07-29T06:09:23;25.60;99.90
64685;DHT22;51109;47.414;18.954;2022-07-29T06:11:49;25.60;99.90
64685;DHT22;51109;47.414;18.954;2022-07-29T06:14:15;25.60;99.90
64685;DHT22;51109;47.414;18.954;2022-07-29T06:16:41;25.80;99.90
64685;DHT22;51109;47.414;18.954;2022-07-29T06:19:08;25.90;99.90
64685;DHT22;51109;47.414;18.954;2022-07-29T06:21:34;26.10;99.90
64685;DHT22;51109;47.414;18.954;2022-07-29T06:23:59;26.10;99.90
64685;DHT22;51109;47.414;18.954;2022-07-29T06:26:25;26.00;99.90
64685;DHT22;51109;47.414;18.954;2022-07-29T06:28:51;26.10;99.90
64685;DHT22;51109;47.414;18.954;2022-07-29T06:31:17;26.30;99.90
64685;DHT22;51109;47.414;18.954;2022-07-29T06:33:43;26.30;99.90
64685;DHT22;51109;47.414;18.954;2022-07-29T06:36:09;26.20;99.90
64685;DHT22;51109;47.414;18.954;2022-07-29T06:38:35;26.10;99.90
64685;DHT22;51109;47.414;18.954;2022-07-29T06:41:01;26.10;99.90
64685;DHT22;51109;47.414;18.954;2022-07-29T06:43:36;26.00;99.90
64685;DHT22;51109;47.414;18.954;2022-07-29T06:46:08;26.10;99.90
64685;DHT22;51109;47.414;18.954;2022-07-29T06:48:35;26.20;99.90
64685;DHT22;51109;47.414;18.954;2022-07-29T06:51:03;26.20;99.90
64685;DHT22;51109;47.414;18.954;2022-07-29T06:53:29;26.30;99.90
64685;DHT22;51109;47.414;18.954;2022-07-29T06:55:56;26.30;99.90
64685;DHT22;51109;47.414;18.954;2022-07-29T06:58:23;26.40;99.90
64685;DHT22;51109;47.414;18.954;2022-07-29T07:00:49;26.50;99.90
64685;DHT22;51109;47.414;18.954;2022-07-29T07:03:16;26.50;99.90
64685;DHT22;51109;47.414;18.954;2022-07-29T07:05:43;26.70;99.90
64685;DHT22;51109;47.414;18.954;2022-07-29T07:08:09;26.80;99.90
64685;DHT22;51109;47.414;18.954;2022-07-29T07:10:36;26.80;99.90
64685;DHT22;51109;47.414;18.954;2022-07-29T07:13:02;26.80;99.90
64685;DHT22;51109;47.414;18.954;2022-07-29T07:15:28;26.80;99.90
64685;DHT22;51109;47.414;18.954;2022-07-29T07:17:55;27.10;99.90
64685;DHT22;51109;47.414;18.954;2022-07-29T07:20:21;27.10;99.90
64685;DHT22;51109;47.414;18.954;2022-07-29T07:22:46;27.20;99.90
64685;DHT22;51109;47.414;18.954;2022-07-29T07:25:12;27.30;99.90
64685;DHT22;51109;47.414;18.954;2022-07-29T07:27:39;27.50;99.90
64685;DHT22;51109;47.414;18.954;2022-07-29T07:30:06;27.70;99.90
64685;DHT22;51109;47.414;18.954;2022-07-29T07:32:33;27.90;99.90
64685;DHT22;51109;47.414;18.954;2022-07-29T07:34:59;28.20;99.90
64685;DHT22;51109;47.414;18.954;2022-07-29T07:37:25;28.40;99.90
64685;DHT22;51109;47.414;18.954;2022-07-29T07:39:52;28.30;99.90
64685;DHT22;51109;47.414;18.954;2022-07-29T07:42:19;28.40;99.90
64685;DHT22;51109;47.414;18.954;2022-07-29T07:44:45;28.50;99.90
64685;DHT22;51109;47.414;18.954;2022-07-29T07:47:15;28.50;99.90
64685;DHT22;51109;47.414;18.954;2022-07-29T07:49:51;28.60;99.80
64685;DHT22;51109;47.414;18.954;2022-07-29T07:52:18;28.90;98.80
64685;DHT22;51109;47.414;18.954;2022-07-29T07:54:44;29.00;99.50
64685;DHT22;51109;47.414;18.954;2022-07-29T07:57:14;29.30;99.50
64685;DHT22;51109;47.414;18.954;2022-07-29T07:59:41;29.20;98.30
64685;DHT22;51109;47.414;18.954;2022-07-29T08:02:09;29.00;98.90
64685;DHT22;51109;47.414;18.954;2022-07-29T08:04:35;29.00;99.50
64685;DHT22;51109;47.414;18.954;2022-07-29T08:07:01;29.00;99.20
64685;DHT22;51109;47.414;18.954;2022-07-29T08:09:28;29.00;99.40
64685;DHT22;51109;47.414;18.954;2022-07-29T08:11:55;29.30;98.60
64685;DHT22;51109;47.414;18.954;2022-07-29T08:14:21;29.50;98.00
64685;DHT22;51109;47.414;18.954;2022-07-29T08:16:47;29.70;98.40
64685;DHT22;51109;47.414;18.954;2022-07-29T08:19:13;29.90;97.40
64685;DHT22;51109;47.414;18.954;2022-07-29T08:21:39;29.90;97.30
64685;DHT22;51109;47.414;18.954;2022-07-29T08:24:07;30.00;98.10
64685;DHT22;51109;47.414;18.954;2022-07-29T08:26:51;30.00;97.30
64685;DHT22;51109;47.414;18.954;2022-07-29T08:29:17;30.10;97.00
64685;DHT22;51109;47.414;18.954;2022-07-29T08:31:43;30.20;97.70
64685;DHT22;51109;47.414;18.954;2022-07-29T08:34:09;30.40;97.80
64685;DHT22;51109;47.414;18.954;2022-07-29T08:36:35;30.60;97.00
64685;DHT22;51109;47.414;18.954;2022-07-29T08:39:02;30.70;95.90
64685;DHT22;51109;47.414;18.954;2022-07-29T08:41:28;30.90;96.60
64685;DHT22;51109;47.414;18.954;2022-07-29T08:43:54;30.90;96.00
64685;DHT22;51109;47.414;18.954;2022-07-29T08:46:21;31.10;96.00
64685;DHT22;51109;47.414;18.954;2022-07-29T08:48:48;31.20;94.70
64685;DHT22;51109;47.414;18.954;2022-07-29T08:51:18;31.40;96.90
64685;DHT22;51109;47.414;18.954;2022-07-29T08:53:46;31.30;94.10
64685;DHT22;51109;47.414;18.954;2022-07-29T08:56:17;31.00;93.50
64685;DHT22;51109;47.414;18.954;2022-07-29T08:58:44;30.90;94.50
64685;DHT22;51109;47.414;18.954;2022-07-29T09:01:13;31.10;94.50
64685;DHT22;51109;47.414;18.954;2022-07-29T09:03:40;31.10;93.80
64685;DHT22;51109;47.414;18.954;2022-07-29T09:06:07;31.40;94.60
64685;DHT22;51109;47.414;18.954;2022-07-29T09:08:34;31.30;94.20
64685;DHT22;51109;47.414;18.954;2022-07-29T09:11:02;31.20;94.20
64685;DHT22;51109;47.414;18.954;2022-07-29T09:13:28;31.30;94.00
64685;DHT22;51109;47.414;18.954;2022-07-29T09:15:54;31.40;93.60
64685;DHT22;51109;47.414;18.954;2022-07-29T09:18:41;31.60;94.10
64685;DHT22;51109;47.414;18.954;2022-07-29T09:21:09;31.80;92.70
64685;DHT22;51109;47.414;18.954;2022-07-29T09:24:11;31.90;95.10
64685;DHT22;51109;47.414;18.954;2022-07-29T09:26:40;32.10;92.60
64685;DHT22;51109;47.414;18.954;2022-07-29T09:29:14;32.00;92.40
64685;DHT22;51109;47.414;18.954;2022-07-29T09:31:49;32.10;93.40
64685;DHT22;51109;47.414;18.954;2022-07-29T09:34:17;32.10;92.90
64685;DHT22;51109;47.414;18.954;2022-07-29T09:36:48;32.30;91.40
64685;DHT22;51109;47.414;18.954;2022-07-29T09:39:16;32.40;91.70
64685;DHT22;51109;47.414;18.954;2022-07-29T09:41:53;32.60;91.40
64685;DHT22;51109;47.414;18.954;2022-07-29T09:44:20;32.40;88.10
64685;DHT22;51109;47.414;18.954;2022-07-29T09:47:01;32.10;91.40
64685;DHT22;51109;47.414;18.954;2022-07-29T09:49:34;32.10;91.20
64685;DHT22;51109;47.414;18.954;2022-07-29T09:52:04;32.40;90.20
64685;DHT22;51109;47.414;18.954;2022-07-29T09:54:31;32.50;91.40
64685;DHT22;51109;47.414;18.954;2022-07-29T09:57:08;32.60;87.10
64685;DHT22;51109;47.414;18.954;2022-07-29T09:59:38;32.70;91.00
64685;DHT22;51109;47.414;18.954;2022-07-29T10:02:14;32.70;89.70
64685;DHT22;51109;47.414;18.954;2022-07-29T10:04:41;32.90;89.30
64685;DHT22;51109;47.414;18.954;2022-07-29T10:07:08;33.10;88.30
64685;DHT22;51109;47.414;18.954;2022-07-29T10:09:37;33.10;85.00
64685;DHT22;51109;47.414;18.954;2022-07-29T10:14:34;33.10;87.10
64685;DHT22;51109;47.414;18.954;2022-07-29T10:17:00;33.10;91.30
64685;DHT22;51109;47.414;18.954;2022-07-29T10:19:29;33.30;85.80
64685;DHT22;51109;47.414;18.954;2022-07-29T10:21:57;33.30;87.60
64685;DHT22;51109;47.414;18.954;2022-07-29T10:24:26;33.30;83.80
64685;DHT22;51109;47.414;18.954;2022-07-29T10:26:57;33.30;81.80
64685;DHT22;51109;47.414;18.954;2022-07-29T10:29:25;33.10;83.30
64685;DHT22;51109;47.414;18.954;2022-07-29T10:40:33;33.40;82.40
64685;DHT22;51109;47.414;18.954;2022-07-29T10:43:27;33.50;85.00
64685;DHT22;51109;47.414;18.954;2022-07-29T10:45:59;33.60;83.60
64685;DHT22;51109;47.414;18.954;2022-07-29T10:48:26;33.80;82.10
64685;DHT22;51109;47.414;18.954;2022-07-29T10:53:23;33.80;79.40
64685;DHT22;51109;47.414;18.954;2022-07-29T10:55:51;33.70;77.60
64685;DHT22;51109;47.414;18.954;2022-07-29T10:58:19;33.50;78.50
64685;DHT22;51109;47.414;18.954;2022-07-29T11:00:51;33.40;79.60
64685;DHT22;51109;47.414;18.954;2022-07-29T11:06:08;33.40;81.00
64685;DHT22;51109;47.414;18.954;2022-07-29T11:08:34;33.30;80.00
64685;DHT22;51109;47.414;18.954;2022-07-29T11:11:35;33.20;80.00
64685;DHT22;51109;47.414;18.954;2022-07-29T11:14:02;33.20;80.00
64685;DHT22;51109;47.414;18.954;2022-07-29T11:17:01;33.30;78.20
64685;DHT22;51109;47.414;18.954;2022-07-29T11:19:28;33.50;80.50
64685;DHT22;51109;47.414;18.954;2022-07-29T11:21:54;33.60;78.00
64685;DHT22;51109;47.414;18.954;2022-07-29T11:24:23;33.80;83.80
64685;DHT22;51109;47.414;18.954;2022-07-29T11:29:35;33.70;77.40
64685;DHT22;51109;47.414;18.954;2022-07-29T11:32:14;33.70;82.80
64685;DHT22;51109;47.414;18.954;2022-07-29T11:34:41;33.60;80.10
64685;DHT22;51109;47.414;18.954;2022-07-29T11:39:41;33.70;78.40
64685;DHT22;51109;47.414;18.954;2022-07-29T11:47:22;34.20;80.10
64685;DHT22;51109;47.414;18.954;2022-07-29T11:49:50;34.10;76.90
64685;DHT22;51109;47.414;18.954;2022-07-29T11:52:17;34.20;76.30
64685;DHT22;51109;47.414;18.954;2022-07-29T11:54:43;33.90;78.60
64685;DHT22;51109;47.414;18.954;2022-07-29T11:57:10;34.00;79.20
64685;DHT22;51109;47.414;18.954;2022-07-29T11:59:40;34.10;78.10
64685;DHT22;51109;47.414;18.954;2022-07-29T12:02:08;34.10;79.10
64685;DHT22;51109;47.414;18.954;2022-07-29T12:04:47;34.10;78.30
64685;DHT22;51109;47.414;18.954;2022-07-29T12:07:13;34.20;75.20
64685;DHT22;51109;47.414;18.954;2022-07-29T12:09:39;34.20;75.80
64685;DHT22;51109;47.414;18.954;2022-07-29T12:12:05;34.30;78.00
64685;DHT22;51109;47.414;18.954;2022-07-29T12:14:32;34.30;77.60
64685;DHT22;51109;47.414;18.954;2022-07-29T12:16:59;34.40;77.90
64685;DHT22;51109;47.414;18.954;2022-07-29T12:19:26;34.40;78.20
64685;DHT22;51109;47.414;18.954;2022-07-29T12:21:54;34.60;76.30
64685;DHT22;51109;47.414;18.954;2022-07-29T12:24:21;34.80;77.40
64685;DHT22;51109;47.414;18.954;2022-07-29T12:29:19;34.90;76.60
64685;DHT22;51109;47.414;18.954;2022-07-29T12:31:46;35.00;74.80
64685;DHT22;51109;47.414;18.954;2022-07-29T12:34:13;35.00;74.50
64685;DHT22;51109;47.414;18.954;2022-07-29T12:36:41;34.90;74.60
64685;DHT22;51109;47.414;18.954;2022-07-29T12:39:08;34.80;72.70
64685;DHT22;51109;47.414;18.954;2022-07-29T12:41:35;34.60;74.50
64685;DHT22;51109;47.414;18.954;2022-07-29T12:44:01;34.80;72.60
64685;DHT22;51109;47.414;18.954;2022-07-29T12:46:27;34.80;72.00
64685;DHT22;51109;47.414;18.954;2022-07-29T12:48:54;34.80;74.70
64685;DHT22;51109;47.414;18.954;2022-07-29T12:51:35;34.80;72.70
64685;DHT22;51109;47.414;18.954;2022-07-29T12:54:07;34.80;71.70
64685;DHT22;51109;47.414;18.954;2022-07-29T12:56:34;34.90;73.00
64685;DHT22;51109;47.414;18.954;2022-07-29T12:59:00;35.10;77.00
64685;DHT22;51109;47.414;18.954;2022-07-29T13:01:36;35.20;73.10
64685;DHT22;51109;47.414;18.954;2022-07-29T13:04:02;35.20;72.60
64685;DHT22;51109;47.414;18.954;2022-07-29T13:06:45;35.20;69.30
64685;DHT22;51109;47.414;18.954;2022-07-29T13:09:18;35.20;71.80
64685;DHT22;51109;47.414;18.954;2022-07-29T13:11:51;35.30;72.50
64685;DHT22;51109;47.414;18.954;2022-07-29T13:14:31;35.30;72.30
64685;DHT22;51109;47.414;18.954;2022-07-29T13:22:22;35.30;70.90
64685;DHT22;51109;47.414;18.954;2022-07-29T13:24:54;35.40;71.30
64685;DHT22;51109;47.414;18.954;2022-07-29T13:27:24;35.50;71.00
64685;DHT22;51109;47.414;18.954;2022-07-29T13:29:51;35.50;69.90
64685;DHT22;51109;47.414;18.954;2022-07-29T13:32:18;35.60;70.20
64685;DHT22;51109;47.414;18.954;2022-07-29T13:34:44;35.50;70.50
64685;DHT22;51109;47.414;18.954;2022-07-29T13:37:10;35.40;69.00
64685;DHT22;51109;47.414;18.954;2022-07-29T13:39:37;35.50;68.40
64685;DHT22;51109;47.414;18.954;2022-07-29T13:42:04;35.60;70.60
64685;DHT22;51109;47.414;18.954;2022-07-29T13:44:30;35.40;69.60
64685;DHT22;51109;47.414;18.954;2022-07-29T13:46:56;35.50;70.60
64685;DHT22;51109;47.414;18.954;2022-07-29T13:49:25;35.50;68.80
64685;DHT22;51109;47.414;18.954;2022-07-29T13:51:51;35.50;70.00
64685;DHT22;51109;47.414;18.954;2022-07-29T13:54:17;35.50;68.70
64685;DHT22;51109;47.414;18.954;2022-07-29T13:56:43;35.50;68.90
64685;DHT22;51109;47.414;18.954;2022-07-29T13:59:09;35.70;66.50
64685;DHT22;51109;47.414;18.954;2022-07-29T14:01:35;35.60;69.70
64685;DHT22;51109;47.414;18.954;2022-07-29T14:04:01;35.70;69.90
64685;DHT22;51109;47.414;18.954;2022-07-29T14:06:27;35.80;69.30
64685;DHT22;51109;47.414;18.954;2022-07-29T14:08:53;35.70;68.50
64685;DHT22;51109;47.414;18.954;2022-07-29T14:11:19;35.80;69.50
64685;DHT22;51109;47.414;18.954;2022-07-29T14:13:45;35.90;68.60
64685;DHT22;51109;47.414;18.954;2022-07-29T14:16:11;35.90;67.80
64685;DHT22;51109;47.414;18.954;2022-07-29T14:18:37;35.80;68.90
64685;DHT22;51109;47.414;18.954;2022-07-29T14:21:03;35.50;67.20
64685;DHT22;51109;47.414;18.954;2022-07-29T14:23:29;35.40;69.10
64685;DHT22;51109;47.414;18.954;2022-07-29T14:25:55;35.30;68.50
64685;DHT22;51109;47.414;18.954;2022-07-29T14:28:20;35.50;70.10
64685;DHT22;51109;47.414;18.954;2022-07-29T14:30:46;35.80;68.00
64685;DHT22;51109;47.414;18.954;2022-07-29T14:33:13;35.90;68.40
64685;DHT22;51109;47.414;18.954;2022-07-29T14:35:39;35.90;66.40
64685;DHT22;51109;47.414;18.954;2022-07-29T14:38:05;35.90;66.50
64685;DHT22;51109;47.414;18.954;2022-07-29T14:40:31;36.00;66.80
64685;DHT22;51109;47.414;18.954;2022-07-29T14:42:57;36.10;66.00
64685;DHT22;51109;47.414;18.954;2022-07-29T14:45:23;36.20;65.80
64685;DHT22;51109;47.414;18.954;2022-07-29T14:47:48;36.40;65.30
64685;DHT22;51109;47.414;18.954;2022-07-29T14:50:16;36.40;65.40
64685;DHT22;51109;47.414;18.954;2022-07-29T14:52:42;36.30;66.60
64685;DHT22;51109;47.414;18.954;2022-07-29T14:55:08;36.30;66.50
64685;DHT22;51109;47.414;18.954;2022-07-29T14:57:38;36.40;66.50
64685;DHT22;51109;47.414;18.954;2022-07-29T15:00:05;36.50;65.70
64685;DHT22;51109;47.414;18.954;2022-07-29T15:02:34;36.50;66.00
64685;DHT22;51109;47.414;18.954;2022-07-29T15:05:00;36.50;65.70
64685;DHT22;51109;47.414;18.954;2022-07-29T15:07:27;36.50;64.60
64685;DHT22;51109;47.414;18.954;2022-07-29T15:09:53;36.40;64.10
64685;DHT22;51109;47.414;18.954;2022-07-29T15:12:19;36.40;65.10
64685;DHT22;51109;47.414;18.954;2022-07-29T15:14:44;36.50;64.90
64685;DHT22;51109;47.414;18.954;2022-07-29T15:17:10;36.60;64.30
64685;DHT22;51109;47.414;18.954;2022-07-29T15:19:37;36.80;65.80
64685;DHT22;51109;47.414;18.954;2022-07-29T15:22:03;36.80;63.50
64685;DHT22;51109;47.414;18.954;2022-07-29T15:24:30;36.60;64.20
64685;DHT22;51109;47.414;18.954;2022-07-29T15:26:56;36.60;64.70
64685;DHT22;51109;47.414;18.954;2022-07-29T15:29:22;36.60;63.30
64685;DHT22;51109;47.414;18.954;2022-07-29T15:31:48;36.60;64.90
64685;DHT22;51109;47.414;18.954;2022-07-29T15:34:14;36.70;64.50
64685;DHT22;51109;47.414;18.954;2022-07-29T15:36:40;36.70;64.30
64685;DHT22;51109;47.414;18.954;2022-07-29T15:39:06;36.50;63.70
64685;DHT22;51109;47.414;18.954;2022-07-29T15:41:33;36.80;64.30
64685;DHT22;51109;47.414;18.954;2022-07-29T15:43:59;36.90;63.50
64685;DHT22;51109;47.414;18.954;2022-07-29T15:46:25;37.20;61.60
64685;DHT22;51109;47.414;18.954;2022-07-29T15:49:09;37.10;62.10
64685;DHT22;51109;47.414;18.954;2022-07-29T15:51:35;36.60;61.50
64685;DHT22;51109;47.414;18.954;2022-07-29T15:54:02;36.30;63.40
64685;DHT22;51109;47.414;18.954;2022-07-29T15:56:28;36.10;62.30
64685;DHT22;51109;47.414;18.954;2022-07-29T15:58:55;35.90;63.40
64685;DHT22;51109;47.414;18.954;2022-07-29T16:01:21;36.10;66.10